createdAt,value
2022-12-18T00:00:42.513Z,66.00
2022-12-18T00:01:42.528Z,68.60
2022-12-18T00:02:42.623Z,65.90
2022-12-18T00:03:42.863Z,69.60
2022-12-18T00:04:42.478Z,66.50
2022-12-18T00:05:42.452Z,63.30
2022-12-18T00:06:42.422Z,66.30
2022-12-18T00:07:42.416Z,66.30
2022-12-18T00:08:42.402Z,68.20
2022-12-18T00:09:42.395Z,71.20
2022-12-18T00:10:42.426Z,70.70
2022-12-18T00:11:42.364Z,69.70
2022-12-18T00:12:42.363Z,65.90
2022-12-18T00:13:42.722Z,68.90
2022-12-18T00:14:42.336Z,69.50
2022-12-18T00:15:42.344Z,66.80
2022-12-18T00:16:43.002Z,68.80
2022-12-18T00:17:42.306Z,68.70
2022-12-18T00:18:42.558Z,70.30
2022-12-18T00:19:42.286Z,70.60
2022-12-18T00:20:42.267Z,67.10
2022-12-18T00:21:42.286Z,65.50
2022-12-18T00:22:42.270Z,67.50
2022-12-18T00:23:42.613Z,70.20
2022-12-18T00:24:42.265Z,68.30
2022-12-18T00:25:42.267Z,63.80
2022-12-18T00:26:42.240Z,67.90
2022-12-18T00:27:42.229Z,68.30
2022-12-18T00:28:42.234Z,69.20
2022-12-18T00:29:42.226Z,68.10
2022-12-18T00:30:42.205Z,70.90
2022-12-18T00:31:42.209Z,66.80
2022-12-18T00:32:42.138Z,68.90
2022-12-18T00:33:42.432Z,70.50
2022-12-18T00:34:42.182Z,65.20
2022-12-18T00:35:42.130Z,64.80
2022-12-18T00:36:42.127Z,65.00
2022-12-18T00:37:42.089Z,64.30
2022-12-18T00:38:42.077Z,65.80
2022-12-18T00:39:42.155Z,69.00
2022-12-18T00:40:42.056Z,69.10
2022-12-18T00:41:42.043Z,67.80
2022-12-18T00:42:42.043Z,71.30
2022-12-18T00:43:42.353Z,65.40
2022-12-18T00:44:42.016Z,68.60
2022-12-18T00:45:42.044Z,65.70
2022-12-18T00:46:41.987Z,66.80
2022-12-18T00:47:41.983Z,66.10
2022-12-18T00:48:41.962Z,73.80
2022-12-18T00:49:41.981Z,70.30
2022-12-18T00:50:41.960Z,69.80
2022-12-18T00:51:41.961Z,71.40
2022-12-18T00:52:41.921Z,74.10
2022-12-18T00:53:41.954Z,73.30
2022-12-18T00:54:41.900Z,82.60
2022-12-18T00:55:41.891Z,85.10
2022-12-18T00:56:49.802Z,82.40
2022-12-18T00:57:41.898Z,77.10
2022-12-18T00:58:41.855Z,77.30
2022-12-18T00:59:41.851Z,71.80
2022-12-18T01:00:41.916Z,73.00
2022-12-18T01:01:42.066Z,71.60
2022-12-18T01:02:41.954Z,71.50
2022-12-18T01:03:42.202Z,74.90
2022-12-18T01:04:41.799Z,72.70
2022-12-18T01:05:41.789Z,71.80
2022-12-18T01:06:41.774Z,73.00
2022-12-18T01:07:41.762Z,71.60
2022-12-18T01:08:41.749Z,72.10
2022-12-18T01:09:41.762Z,71.60
2022-12-18T01:10:41.736Z,70.40
2022-12-18T01:11:41.737Z,72.40
2022-12-18T01:12:41.712Z,72.60
2022-12-18T01:13:42.020Z,70.70
2022-12-18T01:14:41.689Z,67.70
2022-12-18T01:15:41.704Z,72.20
2022-12-18T01:16:41.681Z,68.40
2022-12-18T01:17:41.651Z,72.10
2022-12-18T01:18:41.649Z,67.90
2022-12-18T01:19:41.631Z,70.80
2022-12-18T01:20:41.622Z,67.50
2022-12-18T01:21:41.657Z,66.20
2022-12-18T01:22:41.603Z,66.70
2022-12-18T01:23:42.051Z,67.80
2022-12-18T01:24:41.587Z,69.30
2022-12-18T01:25:41.568Z,68.60
2022-12-18T01:26:41.559Z,71.80
2022-12-18T01:27:41.575Z,73.90
2022-12-18T01:28:41.537Z,68.70
2022-12-18T01:29:41.523Z,69.80
2022-12-18T01:30:41.518Z,71.90
2022-12-18T01:31:41.558Z,66.40
2022-12-18T01:32:41.529Z,71.30
2022-12-18T01:33:41.721Z,73.10
2022-12-18T01:34:41.492Z,70.40
2022-12-18T01:35:41.459Z,74.60
2022-12-18T01:36:41.451Z,69.80
2022-12-18T01:37:41.442Z,68.20
2022-12-18T01:38:41.464Z,73.60
2022-12-18T01:39:41.430Z,71.70
2022-12-18T01:40:41.428Z,72.40
2022-12-18T01:41:41.392Z,71.90
2022-12-18T01:42:41.390Z,68.40
2022-12-18T01:43:41.588Z,70.30
2022-12-18T01:44:41.394Z,70.90
2022-12-18T01:45:41.365Z,69.90
2022-12-18T01:46:41.352Z,73.20
2022-12-18T01:47:41.326Z,67.30
2022-12-18T01:48:41.322Z,69.40
2022-12-18T01:49:41.310Z,72.80
2022-12-18T01:50:41.329Z,75.10
2022-12-18T01:51:41.285Z,72.50
2022-12-18T01:52:41.289Z,73.20
2022-12-18T01:53:41.591Z,72.90
2022-12-18T01:54:41.256Z,71.80
2022-12-18T01:55:41.245Z,65.60
2022-12-18T01:56:41.270Z,69.40
2022-12-18T01:57:41.227Z,69.90
2022-12-18T01:58:41.232Z,70.00
2022-12-18T01:59:41.207Z,70.50
2022-12-18T02:00:41.263Z,70.90
2022-12-18T02:01:41.235Z,66.50
2022-12-18T02:02:41.374Z,70.20
2022-12-18T02:03:41.539Z,65.50
2022-12-18T02:04:46.331Z,68.50
2022-12-18T02:05:41.177Z,68.30
2022-12-18T02:06:41.169Z,68.10
2022-12-18T02:07:41.144Z,66.00
2022-12-18T02:08:41.140Z,65.70
2022-12-18T02:09:41.112Z,66.70
2022-12-18T02:10:41.083Z,65.70
2022-12-18T02:11:41.109Z,70.00
2022-12-18T02:12:41.063Z,65.00
2022-12-18T02:13:41.382Z,68.30
2022-12-18T02:14:41.034Z,65.60
2022-12-18T02:15:41.032Z,68.10
2022-12-18T02:16:41.069Z,62.20
2022-12-18T02:17:41.010Z,65.50
2022-12-18T02:18:40.994Z,65.30
2022-12-18T02:19:40.986Z,61.20
2022-12-18T02:20:40.970Z,62.00
2022-12-18T02:21:41.023Z,63.00
2022-12-18T02:22:40.952Z,62.00
2022-12-18T02:23:41.318Z,60.90
2022-12-18T02:24:40.941Z,57.30
2022-12-18T02:25:40.919Z,66.80
2022-12-18T02:26:40.933Z,60.80
2022-12-18T02:27:40.900Z,61.60
2022-12-18T02:28:40.886Z,59.80
2022-12-18T02:29:40.888Z,59.60
2022-12-18T02:30:40.920Z,64.30
2022-12-18T02:31:40.883Z,57.80
2022-12-18T02:32:40.843Z,61.60
2022-12-18T02:33:41.294Z,64.70
2022-12-18T02:34:40.824Z,64.70
2022-12-18T02:35:40.816Z,58.60
2022-12-18T02:36:40.823Z,60.80
2022-12-18T02:37:40.796Z,61.00
2022-12-18T02:38:40.775Z,60.00
2022-12-18T02:39:40.780Z,60.20
2022-12-18T02:40:40.764Z,61.30
2022-12-18T02:41:40.769Z,59.80
2022-12-18T02:42:40.736Z,58.10
2022-12-18T02:43:40.955Z,61.90
2022-12-18T02:44:40.720Z,56.60
2022-12-18T02:45:40.733Z,57.70
2022-12-18T02:46:40.716Z,56.30
2022-12-18T02:47:40.685Z,59.20
2022-12-18T02:48:40.672Z,59.20
2022-12-18T02:49:40.663Z,59.00
2022-12-18T02:50:40.650Z,56.50
2022-12-18T02:51:40.662Z,57.60
2022-12-18T02:52:40.638Z,60.70
2022-12-18T02:53:41.109Z,60.10
2022-12-18T02:54:40.613Z,61.50
2022-12-18T02:55:40.599Z,59.20
2022-12-18T02:56:40.616Z,59.00
2022-12-18T02:57:40.577Z,58.80
2022-12-18T02:58:40.563Z,59.80
2022-12-18T02:59:40.557Z,65.20
2022-12-18T03:00:40.540Z,60.90
2022-12-18T03:01:40.727Z,57.70
2022-12-18T03:02:40.672Z,61.50
2022-12-18T03:03:40.966Z,58.50
2022-12-18T03:04:40.517Z,57.40
2022-12-18T03:05:40.492Z,55.70
2022-12-18T03:06:40.507Z,59.90
2022-12-18T03:07:40.483Z,57.10
2022-12-18T03:08:40.454Z,55.20
2022-12-18T03:09:40.459Z,57.20
2022-12-18T03:10:40.449Z,56.40
2022-12-18T03:11:40.441Z,59.20
2022-12-18T03:12:40.415Z,56.70
2022-12-18T03:13:40.950Z,58.40
2022-12-18T03:14:40.392Z,59.50
2022-12-18T03:15:40.377Z,56.10
2022-12-18T03:16:40.441Z,58.90
2022-12-18T03:17:40.369Z,55.70
2022-12-18T03:18:40.394Z,59.50
2022-12-18T03:19:40.361Z,57.50
2022-12-18T03:20:40.346Z,57.60
2022-12-18T03:21:40.373Z,56.70
2022-12-18T03:22:40.328Z,57.60
2022-12-18T03:23:40.695Z,55.70
2022-12-18T03:24:40.286Z,61.00
2022-12-18T03:25:40.271Z,59.90
2022-12-18T03:26:40.287Z,55.30
2022-12-18T03:27:40.252Z,57.10
2022-12-18T03:28:40.253Z,57.40
2022-12-18T03:29:40.224Z,59.60
2022-12-18T03:30:40.281Z,59.00
2022-12-18T03:31:40.226Z,57.60
2022-12-18T03:32:40.216Z,59.20
2022-12-18T03:33:40.655Z,55.40
2022-12-18T03:34:40.188Z,54.90
2022-12-18T03:35:40.170Z,58.60
2022-12-18T03:36:40.178Z,54.90
2022-12-18T03:37:40.147Z,55.50
2022-12-18T03:38:40.143Z,56.40
2022-12-18T03:39:40.118Z,53.20
2022-12-18T03:40:40.113Z,57.40
2022-12-18T03:41:40.124Z,56.50
2022-12-18T03:42:40.091Z,54.60
2022-12-18T03:43:40.379Z,56.10
2022-12-18T03:44:40.077Z,55.50
2022-12-18T03:45:40.086Z,54.80
2022-12-18T03:46:40.073Z,53.40
2022-12-18T03:47:40.033Z,56.70
2022-12-18T03:48:40.028Z,59.00
2022-12-18T03:49:40.017Z,54.90
2022-12-18T03:50:40.011Z,55.30
2022-12-18T03:51:40.013Z,57.10
2022-12-18T03:52:39.985Z,56.70
2022-12-18T03:53:40.355Z,53.20
2022-12-18T03:54:39.963Z,52.90
2022-12-18T03:55:39.948Z,51.30
2022-12-18T03:56:39.964Z,53.50
2022-12-18T03:57:39.926Z,51.80
2022-12-18T03:58:39.924Z,53.50
2022-12-18T03:59:39.909Z,49.50
2022-12-18T04:00:39.900Z,51.60
2022-12-18T04:01:40.033Z,48.00
2022-12-18T04:02:39.967Z,52.80
2022-12-18T04:03:40.320Z,49.70
2022-12-18T04:04:39.859Z,49.00
2022-12-18T04:05:39.844Z,49.10
2022-12-18T04:06:39.856Z,46.40
2022-12-18T04:07:39.818Z,48.00
2022-12-18T04:08:39.814Z,47.30
2022-12-18T04:09:39.806Z,48.50
2022-12-18T04:10:39.789Z,47.50
2022-12-18T04:11:39.797Z,49.10
2022-12-18T04:12:39.762Z,47.60
2022-12-18T04:13:40.124Z,48.30
2022-12-18T04:14:39.743Z,51.50
2022-12-18T04:15:39.804Z,47.40
2022-12-18T04:16:39.742Z,46.50
2022-12-18T04:17:39.722Z,46.50
2022-12-18T04:18:39.698Z,46.00
2022-12-18T04:19:39.692Z,44.70
2022-12-18T04:20:39.677Z,39.10
2022-12-18T04:21:39.694Z,44.70
2022-12-18T04:22:39.655Z,45.30
2022-12-18T04:23:40.148Z,42.00
2022-12-18T04:24:39.634Z,41.40
2022-12-18T04:25:39.628Z,40.30
2022-12-18T04:26:39.636Z,41.40
2022-12-18T04:27:39.608Z,41.90
2022-12-18T04:28:39.591Z,42.10
2022-12-18T04:29:39.585Z,43.40
2022-12-18T04:30:39.574Z,44.20
2022-12-18T04:31:39.580Z,43.10
2022-12-18T04:32:39.553Z,45.70
2022-12-18T04:33:40.078Z,45.20
2022-12-18T04:34:39.533Z,42.00
2022-12-18T04:35:39.525Z,43.30
2022-12-18T04:36:39.539Z,40.80
2022-12-18T04:37:39.505Z,41.70
2022-12-18T04:38:39.489Z,43.70
2022-12-18T04:39:39.473Z,40.40
2022-12-18T04:40:39.466Z,38.30
2022-12-18T04:41:39.450Z,43.20
2022-12-18T04:42:39.563Z,41.50
2022-12-18T04:43:39.884Z,41.40
2022-12-18T04:44:39.426Z,39.90
2022-12-18T04:45:39.409Z,39.00
2022-12-18T04:46:39.510Z,40.80
2022-12-18T04:47:39.409Z,37.30
2022-12-18T04:48:39.380Z,38.20
2022-12-18T04:49:39.369Z,36.90
2022-12-18T04:50:39.360Z,38.80
2022-12-18T04:51:39.345Z,37.50
2022-12-18T04:52:39.356Z,36.60
2022-12-18T04:53:39.723Z,39.10
2022-12-18T04:54:39.320Z,38.50
2022-12-18T04:55:39.298Z,35.70
2022-12-18T04:56:39.296Z,38.70
2022-12-18T04:57:39.310Z,40.90
2022-12-18T04:58:39.271Z,41.20
2022-12-18T04:59:39.274Z,40.70
2022-12-18T05:00:39.251Z,40.20
2022-12-18T05:01:39.344Z,41.80
2022-12-18T05:02:39.357Z,37.30
2022-12-18T05:03:39.624Z,41.70
2022-12-18T05:04:39.209Z,38.20
2022-12-18T05:05:39.195Z,39.30
2022-12-18T05:06:39.188Z,40.20
2022-12-18T05:07:39.193Z,39.90
2022-12-18T05:08:39.168Z,39.90
2022-12-18T05:09:39.152Z,39.40
2022-12-18T05:10:39.154Z,44.20
2022-12-18T05:11:39.137Z,39.90
2022-12-18T05:12:39.147Z,42.00
2022-12-18T05:13:39.678Z,39.50
2022-12-18T05:14:39.099Z,37.00
2022-12-18T05:15:39.158Z,37.60
2022-12-18T05:16:39.076Z,37.90
2022-12-18T05:17:39.093Z,37.70
2022-12-18T05:18:39.055Z,36.60
2022-12-18T05:19:39.045Z,37.80
2022-12-18T05:20:39.029Z,35.70
2022-12-18T05:21:39.027Z,39.70
2022-12-18T05:22:39.031Z,37.80
2022-12-18T05:23:39.441Z,37.20
2022-12-18T05:24:38.988Z,37.80
2022-12-18T05:25:38.995Z,37.60
2022-12-18T05:26:38.967Z,37.80
2022-12-18T05:27:38.983Z,39.50
2022-12-18T05:28:38.944Z,36.80
2022-12-18T05:29:38.940Z,36.00
2022-12-18T05:30:38.939Z,37.10
2022-12-18T05:31:39.900Z,39.60
2022-12-18T05:32:38.926Z,37.80
2022-12-18T05:33:39.428Z,39.80
2022-12-18T05:34:38.881Z,37.70
2022-12-18T05:35:38.875Z,38.10
2022-12-18T05:36:38.857Z,38.60
2022-12-18T05:37:43.010Z,39.60
2022-12-18T05:38:38.843Z,37.90
2022-12-18T05:39:38.835Z,34.50
2022-12-18T05:40:39.143Z,34.80
2022-12-18T05:41:38.811Z,35.40
2022-12-18T05:42:38.819Z,33.10
2022-12-18T05:43:39.328Z,36.00
2022-12-18T05:44:38.792Z,39.70
2022-12-18T05:45:38.770Z,35.90
2022-12-18T05:46:38.814Z,32.80
2022-12-18T05:47:38.769Z,32.90
2022-12-18T05:48:38.732Z,34.90
2022-12-18T05:49:38.725Z,35.80
2022-12-18T05:50:38.714Z,32.00
2022-12-18T05:51:38.705Z,39.20
2022-12-18T05:52:38.718Z,36.50
2022-12-18T05:53:39.142Z,36.20
2022-12-18T05:54:38.666Z,36.50
2022-12-18T05:55:38.675Z,38.00
2022-12-18T05:56:38.645Z,36.00
2022-12-18T05:57:38.641Z,35.70
2022-12-18T05:58:38.648Z,36.80
2022-12-18T05:59:38.616Z,35.40
2022-12-18T06:00:38.606Z,36.00
2022-12-18T06:01:38.722Z,37.20
2022-12-18T06:02:38.710Z,36.30
2022-12-18T06:03:38.762Z,34.80
2022-12-18T06:04:38.563Z,37.20
2022-12-18T06:05:38.553Z,34.00
2022-12-18T06:06:38.535Z,35.50
2022-12-18T06:07:38.553Z,35.50
2022-12-18T06:08:44.381Z,35.40
2022-12-18T06:09:38.512Z,35.00
2022-12-18T06:10:38.500Z,34.00
2022-12-18T06:11:38.487Z,33.00
2022-12-18T06:12:38.476Z,36.20
2022-12-18T06:13:38.784Z,36.50
2022-12-18T06:14:38.454Z,36.10
2022-12-18T06:15:38.446Z,35.00
2022-12-18T06:16:38.471Z,35.00
2022-12-18T06:17:38.420Z,35.30
2022-12-18T06:18:38.439Z,36.40
2022-12-18T06:19:38.400Z,36.40
2022-12-18T06:20:38.396Z,34.90
2022-12-18T06:21:38.376Z,36.30
2022-12-18T06:22:38.370Z,37.00
2022-12-18T06:23:38.746Z,34.90
2022-12-18T06:24:38.363Z,36.80
2022-12-18T06:25:38.336Z,38.10
2022-12-18T06:26:38.326Z,34.90
2022-12-18T06:27:38.312Z,35.90
2022-12-18T06:28:38.326Z,37.00
2022-12-18T06:29:38.291Z,33.60
2022-12-18T06:30:38.284Z,36.70
2022-12-18T06:31:38.331Z,33.90
2022-12-18T06:32:38.263Z,34.20
2022-12-18T06:33:38.804Z,34.90
2022-12-18T06:34:38.243Z,38.40
2022-12-18T06:35:38.225Z,37.80
2022-12-18T06:36:38.219Z,37.00
2022-12-18T06:37:38.204Z,35.00
2022-12-18T06:38:38.600Z,35.10
2022-12-18T06:39:38.184Z,38.50
2022-12-18T06:40:38.179Z,36.60
2022-12-18T06:41:38.162Z,35.70
2022-12-18T06:42:38.156Z,35.00
2022-12-18T06:43:38.674Z,37.50
2022-12-18T06:44:38.138Z,39.30
2022-12-18T06:45:38.169Z,37.50
2022-12-18T06:46:38.113Z,34.70
2022-12-18T06:47:38.100Z,35.70
2022-12-18T06:48:38.112Z,35.20
2022-12-18T06:49:38.078Z,34.50
2022-12-18T06:50:38.069Z,34.50
2022-12-18T06:51:38.057Z,33.70
2022-12-18T06:52:38.054Z,33.20
2022-12-18T06:53:38.474Z,34.20
2022-12-18T06:54:38.028Z,33.30
2022-12-18T06:55:38.048Z,34.80
2022-12-18T06:56:38.017Z,35.40
2022-12-18T06:57:37.990Z,33.60
2022-12-18T06:58:38.006Z,35.30
2022-12-18T06:59:37.971Z,38.90
2022-12-18T07:00:38.063Z,36.20
2022-12-18T07:01:38.161Z,36.00
2022-12-18T07:02:38.077Z,34.10
2022-12-18T07:03:38.367Z,35.30
2022-12-18T07:04:37.919Z,37.90
2022-12-18T07:05:37.906Z,35.50
2022-12-18T07:06:37.897Z,32.80
2022-12-18T07:07:37.885Z,35.10
2022-12-18T07:08:37.897Z,33.50
2022-12-18T07:09:37.864Z,34.30
2022-12-18T07:10:41.979Z,35.40
2022-12-18T07:11:37.850Z,33.40
2022-12-18T07:12:37.829Z,35.80
2022-12-18T07:13:38.166Z,36.30
2022-12-18T07:14:37.837Z,38.70
2022-12-18T07:15:37.803Z,36.30
2022-12-18T07:16:37.812Z,35.40
2022-12-18T07:17:37.802Z,34.00
2022-12-18T07:18:38.325Z,37.30
2022-12-18T07:19:37.758Z,38.30
2022-12-18T07:20:37.739Z,35.60
2022-12-18T07:21:37.737Z,35.60
2022-12-18T07:22:37.749Z,33.00
2022-12-18T07:23:38.126Z,34.80
2022-12-18T07:24:37.699Z,39.70
2022-12-18T07:25:37.692Z,36.50
2022-12-18T07:26:37.679Z,38.10
2022-12-18T07:27:37.671Z,34.90
2022-12-18T07:28:37.684Z,33.80
2022-12-18T07:29:37.651Z,36.90
2022-12-18T07:30:37.636Z,34.80
2022-12-18T07:31:37.677Z,34.20
2022-12-18T07:32:37.618Z,36.70
2022-12-18T07:33:38.059Z,35.50
2022-12-18T07:34:37.613Z,34.50
2022-12-18T07:35:37.585Z,35.90
2022-12-18T07:36:37.570Z,33.80
2022-12-18T07:37:37.562Z,37.10
2022-12-18T07:38:37.575Z,38.80
2022-12-18T07:39:37.540Z,35.30
2022-12-18T07:40:37.527Z,35.10
2022-12-18T07:41:40.213Z,36.90
2022-12-18T07:42:37.505Z,34.90
2022-12-18T07:43:37.825Z,37.20
2022-12-18T07:44:37.482Z,34.70
2022-12-18T07:45:37.557Z,36.10
2022-12-18T07:46:37.465Z,33.30
2022-12-18T07:47:37.459Z,34.90
2022-12-18T07:48:37.462Z,33.80
2022-12-18T07:49:37.444Z,34.60
2022-12-18T07:50:37.420Z,34.50
2022-12-18T07:51:37.413Z,34.80
2022-12-18T07:52:37.395Z,33.70
2022-12-18T07:53:37.822Z,34.10
2022-12-18T07:54:37.374Z,35.50
2022-12-18T07:55:59.943Z,35.00
2022-12-18T07:56:37.359Z,34.10
2022-12-18T07:57:57.605Z,32.20
2022-12-18T07:58:37.359Z,35.10
2022-12-18T07:59:37.329Z,32.90
2022-12-18T08:00:37.314Z,33.10
2022-12-18T08:01:37.473Z,34.60
2022-12-18T08:02:37.363Z,31.60
2022-12-18T08:03:37.657Z,32.40
2022-12-18T08:04:37.267Z,34.00
2022-12-18T08:05:37.285Z,33.20
2022-12-18T08:06:37.245Z,33.30
2022-12-18T08:07:37.255Z,33.80
2022-12-18T08:08:37.247Z,36.00
2022-12-18T08:09:37.220Z,33.30
2022-12-18T08:10:37.206Z,33.00
2022-12-18T08:11:37.193Z,37.30
2022-12-18T08:12:37.186Z,36.00
2022-12-18T08:13:37.445Z,32.00
2022-12-18T08:14:37.166Z,33.60
2022-12-18T08:15:37.152Z,29.90
2022-12-18T08:16:37.163Z,32.20
2022-12-18T08:17:37.130Z,30.00
2022-12-18T08:18:37.143Z,35.00
2022-12-18T08:19:37.108Z,31.10
2022-12-18T08:20:37.103Z,31.40
2022-12-18T08:21:37.086Z,30.00
2022-12-18T08:22:37.081Z,34.00
2022-12-18T08:23:42.356Z,30.70
2022-12-18T08:24:37.075Z,31.00
2022-12-18T08:25:37.043Z,30.10
2022-12-18T08:26:37.038Z,26.80
2022-12-18T08:27:37.022Z,29.80
2022-12-18T08:28:37.036Z,28.70
2022-12-18T08:29:36.999Z,28.30
2022-12-18T08:30:37.072Z,29.70
2022-12-18T08:31:37.043Z,31.20
2022-12-18T08:32:36.971Z,29.60
2022-12-18T08:33:37.086Z,32.20
2022-12-18T08:34:36.948Z,30.90
2022-12-18T08:35:41.087Z,31.20
2022-12-18T08:36:36.933Z,30.90
2022-12-18T08:37:36.913Z,28.80
2022-12-18T08:38:36.927Z,29.50
2022-12-18T08:39:36.890Z,29.50
2022-12-18T08:40:36.883Z,29.80
2022-12-18T08:41:36.868Z,31.80
2022-12-18T08:42:36.859Z,30.30
2022-12-18T08:43:37.096Z,30.30
2022-12-18T08:44:36.834Z,27.50
2022-12-18T08:45:36.851Z,28.90
2022-12-18T08:46:36.913Z,29.80
2022-12-18T08:47:36.810Z,29.50
2022-12-18T08:48:36.815Z,29.60
2022-12-18T08:49:36.788Z,27.90
2022-12-18T08:50:36.771Z,28.80
2022-12-18T08:51:36.778Z,28.40
2022-12-18T08:52:36.748Z,29.40
2022-12-18T08:53:37.086Z,30.60
2022-12-18T08:54:36.727Z,27.20
2022-12-18T08:55:36.722Z,27.50
2022-12-18T08:56:36.706Z,27.10
2022-12-18T08:57:36.702Z,28.20
2022-12-18T08:58:36.715Z,26.10
2022-12-18T08:59:36.676Z,28.20
2022-12-18T09:00:36.666Z,29.10
2022-12-18T09:01:36.778Z,28.10
2022-12-18T09:02:36.780Z,29.00
2022-12-18T09:03:36.655Z,27.70
2022-12-18T09:04:36.625Z,24.80
2022-12-18T09:05:36.612Z,26.00
2022-12-18T09:06:36.611Z,28.20
2022-12-18T09:07:36.594Z,27.30
2022-12-18T09:08:36.642Z,24.20
2022-12-18T09:09:36.571Z,26.40
2022-12-18T09:10:41.711Z,25.50
2022-12-18T09:11:36.561Z,25.60
2022-12-18T09:12:36.543Z,25.70
2022-12-18T09:13:36.571Z,26.70
2022-12-18T09:14:36.518Z,25.60
2022-12-18T09:15:36.516Z,26.60
2022-12-18T09:16:36.525Z,26.40
2022-12-18T09:17:36.482Z,28.00
2022-12-18T09:18:36.522Z,28.40
2022-12-18T09:19:36.457Z,27.60
2022-12-18T09:20:36.452Z,28.50
2022-12-18T09:21:37.124Z,29.10
2022-12-18T09:22:36.431Z,28.50
2022-12-18T09:23:36.441Z,29.50
2022-12-18T09:24:36.407Z,32.20
2022-12-18T09:25:36.393Z,31.60
2022-12-18T09:26:36.387Z,27.80
2022-12-18T09:27:36.370Z,29.10
2022-12-18T09:28:36.383Z,28.00
2022-12-18T09:29:36.350Z,27.20
2022-12-18T09:30:36.361Z,28.50
2022-12-18T09:31:36.328Z,27.90
2022-12-18T09:32:36.319Z,28.90
2022-12-18T09:33:36.327Z,27.10
2022-12-18T09:34:36.298Z,28.70
2022-12-18T09:35:36.283Z,29.40
2022-12-18T09:36:36.275Z,26.70
2022-12-18T09:37:36.261Z,27.40
2022-12-18T09:38:36.293Z,27.80
2022-12-18T09:39:36.238Z,27.60
2022-12-18T09:40:36.234Z,30.30
2022-12-18T09:41:36.215Z,29.50
2022-12-18T09:42:36.211Z,28.30
2022-12-18T09:43:36.228Z,29.80
2022-12-18T09:44:43.069Z,29.50
2022-12-18T09:45:36.180Z,28.20
2022-12-18T09:46:36.199Z,28.50
2022-12-18T09:47:36.152Z,30.10
2022-12-18T09:48:36.147Z,28.00
2022-12-18T09:49:36.153Z,27.40
2022-12-18T09:50:36.123Z,26.30
2022-12-18T09:51:36.112Z,28.30
2022-12-18T09:52:36.102Z,26.50
2022-12-18T09:53:36.085Z,31.10
2022-12-18T09:54:36.105Z,26.20
2022-12-18T09:55:37.540Z,27.50
2022-12-18T09:56:36.057Z,28.10
2022-12-18T09:57:36.075Z,27.30
2022-12-18T09:58:36.037Z,29.00
2022-12-18T09:59:36.021Z,28.70
2022-12-18T10:00:36.015Z,29.90
2022-12-18T10:01:43.407Z,25.50
2022-12-18T10:02:36.196Z,26.60
2022-12-18T10:03:36.003Z,29.20
2022-12-18T10:04:36.000Z,26.40
2022-12-18T10:05:35.956Z,29.80
2022-12-18T10:06:35.950Z,29.20
2022-12-18T10:07:35.933Z,28.70
2022-12-18T10:08:35.946Z,28.20
2022-12-18T10:09:35.937Z,26.10
2022-12-18T10:10:35.903Z,26.60
2022-12-18T10:11:35.897Z,29.30
2022-12-18T10:12:35.880Z,28.20
2022-12-18T10:13:35.875Z,28.50
2022-12-18T10:14:35.889Z,27.50
2022-12-18T10:15:35.891Z,25.90
2022-12-18T10:16:35.837Z,27.30
2022-12-18T10:17:35.843Z,28.00
2022-12-18T10:18:35.823Z,28.00
2022-12-18T10:19:35.836Z,27.20
2022-12-18T10:20:35.796Z,30.30
2022-12-18T10:21:35.796Z,30.00
2022-12-18T10:22:35.778Z,29.10
2022-12-18T10:23:35.786Z,27.90
2022-12-18T10:24:35.778Z,27.90
2022-12-18T10:25:35.749Z,27.70
2022-12-18T10:26:35.732Z,28.50
2022-12-18T10:27:35.721Z,30.10
2022-12-18T10:28:35.715Z,26.80
2022-12-18T10:29:35.732Z,28.30
2022-12-18T10:30:35.684Z,27.80
2022-12-18T10:31:35.711Z,29.00
2022-12-18T10:32:35.665Z,26.90
2022-12-18T10:33:35.657Z,27.90
2022-12-18T10:34:35.642Z,25.50
2022-12-18T10:35:35.671Z,26.10
2022-12-18T10:36:35.624Z,26.20
2022-12-18T10:37:35.618Z,25.10
2022-12-18T10:38:35.598Z,25.50
2022-12-18T10:39:35.604Z,26.40
2022-12-18T10:40:35.577Z,24.70
2022-12-18T10:41:35.597Z,26.70
2022-12-18T10:42:35.567Z,25.40
2022-12-18T10:43:35.564Z,26.80
2022-12-18T10:44:35.560Z,25.00
2022-12-18T10:45:35.538Z,25.40
2022-12-18T10:46:35.629Z,26.40
2022-12-18T10:47:35.521Z,25.80
2022-12-18T10:48:35.505Z,27.30
2022-12-18T10:49:35.516Z,26.40
2022-12-18T10:51:09.086Z,26.00
2022-12-18T10:51:35.469Z,29.60
2022-12-18T10:52:35.466Z,31.30
2022-12-18T10:53:35.468Z,34.20
2022-12-18T10:54:35.427Z,30.70
2022-12-18T10:55:35.416Z,36.10
2022-12-18T10:56:35.407Z,37.70
2022-12-18T10:57:35.419Z,40.90
2022-12-18T10:58:35.376Z,28.10
2022-12-18T10:59:35.368Z,28.00
2022-12-18T11:00:35.355Z,27.50
2022-12-18T11:01:35.398Z,22.90
2022-12-18T11:02:35.680Z,24.20
2022-12-18T11:03:35.346Z,21.30
2022-12-18T11:04:35.316Z,22.70
2022-12-18T11:05:35.303Z,23.30
2022-12-18T11:06:35.290Z,23.30
2022-12-18T11:07:35.281Z,23.40
2022-12-18T11:08:35.277Z,24.70
2022-12-18T11:09:35.255Z,22.60
2022-12-18T11:10:35.238Z,23.10
2022-12-18T11:11:35.224Z,25.80
2022-12-18T11:12:35.215Z,23.70
2022-12-18T11:13:35.222Z,23.10
2022-12-18T11:14:35.192Z,22.90
2022-12-18T11:15:35.178Z,22.90
2022-12-18T11:16:35.229Z,22.50
2022-12-18T11:17:35.163Z,22.20
2022-12-18T11:18:35.153Z,22.30
2022-12-18T11:19:35.160Z,23.10
2022-12-18T11:20:35.130Z,22.00
2022-12-18T11:21:35.116Z,23.90
2022-12-18T11:22:35.112Z,23.70
2022-12-18T11:23:35.101Z,22.20
2022-12-18T11:24:35.083Z,23.90
2022-12-18T11:25:36.204Z,24.60
2022-12-18T11:26:35.066Z,24.30
2022-12-18T11:27:35.070Z,22.30
2022-12-18T11:28:35.047Z,23.10
2022-12-18T11:29:35.025Z,24.60
2022-12-18T11:30:35.022Z,23.50
2022-12-18T11:31:35.144Z,25.20
2022-12-18T11:32:34.996Z,24.70
2022-12-18T11:33:34.988Z,23.50
2022-12-18T11:34:34.974Z,25.20
2022-12-18T11:35:34.964Z,26.00
2022-12-18T11:36:34.953Z,27.30
2022-12-18T11:37:34.954Z,24.90
2022-12-18T11:38:34.945Z,25.90
2022-12-18T11:39:34.934Z,25.60
2022-12-18T11:40:40.724Z,25.80
2022-12-18T11:41:34.908Z,26.30
2022-12-18T11:42:34.919Z,25.00
2022-12-18T11:43:34.882Z,25.00
2022-12-18T11:44:34.870Z,25.60
2022-12-18T11:45:34.858Z,22.10
2022-12-18T11:46:34.905Z,23.20
2022-12-18T11:47:34.839Z,23.00
2022-12-18T11:48:34.854Z,23.30
2022-12-18T11:49:34.812Z,23.20
2022-12-18T11:50:34.827Z,24.30
2022-12-18T11:51:34.814Z,26.20
2022-12-18T11:52:34.787Z,22.80
2022-12-18T11:53:34.771Z,22.80
2022-12-18T11:54:34.765Z,23.20
2022-12-18T11:55:34.778Z,24.10
2022-12-18T11:56:34.746Z,24.00
2022-12-18T11:57:34.727Z,23.10
2022-12-18T11:58:34.728Z,22.20
2022-12-18T11:59:34.708Z,22.20
2022-12-18T12:00:34.716Z,23.00
2022-12-18T12:01:40.375Z,23.90
2022-12-18T12:02:34.813Z,23.50
2022-12-18T12:03:34.693Z,23.50
2022-12-18T12:04:34.684Z,24.10
2022-12-18T12:05:34.660Z,23.70
2022-12-18T12:06:34.630Z,21.60
2022-12-18T12:07:34.614Z,25.00
2022-12-18T12:08:34.610Z,25.40
2022-12-18T12:09:34.596Z,26.50
2022-12-18T12:10:34.603Z,24.60
2022-12-18T12:11:34.578Z,26.70
2022-12-18T12:12:34.561Z,28.40
2022-12-18T12:13:34.556Z,27.00
2022-12-18T12:14:34.540Z,28.50
2022-12-18T12:15:34.588Z,26.50
2022-12-18T12:16:34.698Z,27.10
2022-12-18T12:17:34.510Z,25.20
2022-12-18T12:18:34.499Z,25.50
2022-12-18T12:19:34.488Z,25.70
2022-12-18T12:20:36.118Z,25.70
2022-12-18T12:21:34.470Z,26.20
2022-12-18T12:22:34.452Z,28.50
2022-12-18T12:23:34.445Z,26.80
2022-12-18T12:24:34.430Z,26.40
2022-12-18T12:25:34.447Z,25.00
2022-12-18T12:26:34.409Z,27.10
2022-12-18T12:27:34.400Z,26.90
2022-12-18T12:28:34.386Z,28.80
2022-12-18T12:29:34.379Z,28.60
2022-12-18T12:30:34.387Z,25.70
2022-12-18T12:31:34.403Z,25.70
2022-12-18T12:32:34.346Z,25.70
2022-12-18T12:33:34.339Z,27.90
2022-12-18T12:34:34.320Z,27.50
2022-12-18T12:35:34.335Z,26.70
2022-12-18T12:36:34.302Z,27.40
2022-12-18T12:37:34.292Z,26.30
2022-12-18T12:38:34.275Z,28.80
2022-12-18T12:39:34.270Z,25.40
2022-12-18T12:40:53.982Z,25.10
2022-12-18T12:41:34.258Z,26.90
2022-12-18T12:42:34.233Z,27.60
2022-12-18T12:43:34.231Z,25.70
2022-12-18T12:44:34.215Z,25.30
2022-12-18T12:45:34.288Z,26.20
2022-12-18T12:46:34.186Z,26.30
2022-12-18T12:47:34.180Z,26.50
2022-12-18T12:48:34.165Z,25.00
2022-12-18T12:49:39.021Z,28.60
2022-12-18T12:50:34.169Z,28.30
2022-12-18T12:51:34.138Z,27.00
2022-12-18T12:52:34.121Z,27.20